« Back
NWS Peachtree City, Ga » Text Product » MCN Terminal Aerodrome Forecast


Printer-friendly Version
Current Version              Previous Versions:   1  2  3  4  5  6  7  8  9  

Terminal Aerodrome Forecast

576
FTUS42 KFFC 262002 AAA
TAFMCN
TAF AMD
KMCN 262002Z 2620/2718 12012KT P6SM SCT035 BKN050
      TEMPO 2621/2624 5SM -TSRA BKN035CB
     FM270200 12003KT P6SM SCT090 BKN250
     FM271500 21005KT P6SM SCT035=



USA.gov is the U.S. government's official web portal to all federal, state and local government web resources and services.